createdAt,value
2023-04-27T00:00:23.826Z,63.12
2023-04-27T00:01:23.839Z,60.91
2023-04-27T00:02:24.072Z,61.78
2023-04-27T00:03:24.001Z,60.28
2023-04-27T00:04:24.041Z,60.03
2023-04-27T00:05:24.039Z,60.32
2023-04-27T00:06:23.872Z,59.83
2023-04-27T00:07:23.815Z,60.25
2023-04-27T00:08:23.843Z,60.18
2023-04-27T00:09:23.890Z,59.16
2023-04-27T00:10:23.863Z,59.41
2023-04-27T00:11:23.840Z,59.43
2023-04-27T00:12:23.831Z,58.55
2023-04-27T00:13:23.857Z,59.27
2023-04-27T00:14:23.872Z,58.37
2023-04-27T00:15:23.880Z,59.04
2023-04-27T00:16:23.875Z,58.31
2023-04-27T00:17:23.873Z,57.35
2023-04-27T00:18:23.852Z,56.55
2023-04-27T00:19:23.915Z,56.71
2023-04-27T00:20:23.906Z,56.77
2023-04-27T00:21:23.894Z,56.78
2023-04-27T00:22:23.981Z,57.49
2023-04-27T00:23:23.983Z,56.48
2023-04-27T00:24:23.947Z,55.95
2023-04-27T00:25:23.994Z,56.58
2023-04-27T00:26:24.003Z,55.25
2023-04-27T00:27:24.007Z,57.22
2023-04-27T00:28:24.011Z,56.26
2023-04-27T00:29:23.987Z,55.31
2023-04-27T00:30:23.992Z,56.40
2023-04-27T00:31:24.041Z,56.19
2023-04-27T00:32:24.060Z,54.89
2023-04-27T00:33:23.977Z,55.13
2023-04-27T00:34:23.999Z,53.24
2023-04-27T00:35:23.986Z,53.29
2023-04-27T00:36:24.029Z,53.89
2023-04-27T00:37:24.029Z,53.84
2023-04-27T00:38:24.041Z,52.43
2023-04-27T00:39:24.031Z,52.80
2023-04-27T00:40:24.057Z,52.24
2023-04-27T00:41:24.109Z,52.01
2023-04-27T00:42:24.125Z,52.74
2023-04-27T00:43:24.145Z,53.36
2023-04-27T00:44:24.231Z,51.80
2023-04-27T00:45:24.237Z,50.95
2023-04-27T00:46:24.389Z,52.18
2023-04-27T00:47:24.289Z,52.14
2023-04-27T00:48:24.309Z,51.72
2023-04-27T00:49:24.361Z,50.86
2023-04-27T00:50:24.365Z,51.08
2023-04-27T00:51:24.410Z,50.40
2023-04-27T00:52:24.437Z,50.35
2023-04-27T00:53:24.502Z,49.71
2023-04-27T00:54:24.508Z,50.36
2023-04-27T00:55:24.562Z,49.95
2023-04-27T00:56:24.536Z,49.65
2023-04-27T00:57:24.565Z,49.84
2023-04-27T00:58:24.601Z,50.69
2023-04-27T00:59:24.644Z,50.15
2023-04-27T01:00:24.641Z,49.06
2023-04-27T01:01:24.711Z,49.21
2023-04-27T01:02:24.865Z,48.54
2023-04-27T01:03:24.848Z,47.95
2023-04-27T01:04:24.835Z,48.09
2023-04-27T01:05:24.680Z,47.72
2023-04-27T01:06:24.728Z,48.05
2023-04-27T01:07:24.686Z,48.37
2023-04-27T01:08:24.692Z,48.11
2023-04-27T01:09:24.709Z,48.22
2023-04-27T01:10:24.717Z,47.78
2023-04-27T01:11:24.754Z,47.81
2023-04-27T01:12:24.730Z,47.41
2023-04-27T01:13:24.803Z,47.12
2023-04-27T01:14:24.762Z,46.86
2023-04-27T01:15:24.818Z,46.82
2023-04-27T01:16:24.904Z,46.75
2023-04-27T01:17:24.846Z,46.36
2023-04-27T01:18:24.837Z,46.40
2023-04-27T01:19:24.842Z,46.28
2023-04-27T01:20:24.849Z,46.56
2023-04-27T01:21:24.819Z,46.58
2023-04-27T01:22:24.869Z,46.19
2023-04-27T01:23:24.855Z,45.74
2023-04-27T01:24:24.853Z,46.53
2023-04-27T01:25:24.899Z,45.38
2023-04-27T01:26:24.925Z,45.76
2023-04-27T01:27:24.940Z,45.89
2023-04-27T01:28:24.871Z,44.82
2023-04-27T01:29:24.894Z,45.98
2023-04-27T01:30:24.966Z,45.72
2023-04-27T01:31:25.004Z,45.40
2023-04-27T01:32:24.932Z,45.07
2023-04-27T01:33:24.937Z,46.10
2023-04-27T01:34:24.937Z,44.48
2023-04-27T01:35:27.624Z,44.56
2023-04-27T01:36:25.005Z,45.13
2023-04-27T01:37:24.926Z,45.59
2023-04-27T01:38:24.955Z,44.99
2023-04-27T01:39:24.955Z,45.07
2023-04-27T01:40:24.910Z,44.63
2023-04-27T01:41:24.930Z,44.18
2023-04-27T01:42:24.934Z,43.75
2023-04-27T01:43:24.914Z,43.63
2023-04-27T01:44:24.895Z,42.70
2023-04-27T01:45:24.898Z,42.74
2023-04-27T01:46:24.948Z,42.77
2023-04-27T01:47:24.906Z,43.36
2023-04-27T01:48:24.886Z,43.31
2023-04-27T01:49:24.889Z,42.48
2023-04-27T01:50:24.852Z,42.67
2023-04-27T01:51:24.903Z,42.10
2023-04-27T01:52:24.843Z,42.00
2023-04-27T01:53:24.852Z,42.15
2023-04-27T01:54:26.380Z,42.26
2023-04-27T01:55:24.825Z,42.34
2023-04-27T01:56:24.812Z,42.49
2023-04-27T01:57:24.839Z,42.50
2023-04-27T01:58:24.795Z,42.71
2023-04-27T01:59:24.790Z,42.77
2023-04-27T02:00:24.805Z,42.59
2023-04-27T02:01:24.824Z,42.35
2023-04-27T02:02:24.889Z,41.37
2023-04-27T02:03:24.929Z,41.46
2023-04-27T02:04:24.851Z,41.75
2023-04-27T02:05:24.793Z,41.54
2023-04-27T02:06:24.761Z,41.77
2023-04-27T02:07:24.752Z,41.12
2023-04-27T02:08:24.711Z,41.49
2023-04-27T02:09:24.730Z,41.49
2023-04-27T02:10:24.709Z,41.04
2023-04-27T02:11:24.724Z,41.12
2023-04-27T02:12:24.678Z,40.91
2023-04-27T02:13:24.671Z,40.68
2023-04-27T02:14:24.669Z,40.69
2023-04-27T02:15:24.709Z,41.27
2023-04-27T02:16:24.695Z,40.01
2023-04-27T02:17:24.704Z,40.22
2023-04-27T02:18:24.665Z,40.88
2023-04-27T02:19:24.695Z,40.08
2023-04-27T02:20:24.627Z,39.98
2023-04-27T02:21:24.706Z,39.51
2023-04-27T02:22:24.645Z,39.17
2023-04-27T02:23:24.654Z,40.26
2023-04-27T02:24:24.617Z,39.31
2023-04-27T02:25:24.642Z,40.08
2023-04-27T02:26:24.602Z,39.38
2023-04-27T02:27:24.598Z,39.10
2023-04-27T02:28:24.580Z,38.32
2023-04-27T02:29:24.591Z,38.16
2023-04-27T02:30:24.601Z,37.88
2023-04-27T02:31:24.627Z,39.18
2023-04-27T02:32:24.589Z,38.10
2023-04-27T02:33:24.577Z,38.29
2023-04-27T02:34:24.591Z,37.97
2023-04-27T02:35:24.593Z,38.04
2023-04-27T02:36:24.562Z,37.83
2023-04-27T02:37:24.530Z,37.72
2023-04-27T02:38:24.524Z,37.57
2023-04-27T02:39:24.516Z,37.00
2023-04-27T02:40:24.477Z,37.64
2023-04-27T02:41:24.515Z,37.50
2023-04-27T02:42:24.456Z,37.18
2023-04-27T02:43:24.482Z,37.49
2023-04-27T02:44:24.481Z,37.11
2023-04-27T02:45:24.477Z,36.63
2023-04-27T02:46:24.485Z,37.11
2023-04-27T02:47:24.468Z,37.18
2023-04-27T02:48:24.442Z,36.29
2023-04-27T02:49:24.445Z,36.41
2023-04-27T02:50:24.488Z,36.33
2023-04-27T02:51:24.416Z,36.17
2023-04-27T02:52:24.424Z,35.43
2023-04-27T02:53:24.435Z,35.88
2023-04-27T02:54:24.466Z,35.21
2023-04-27T02:55:24.482Z,35.50
2023-04-27T02:56:24.401Z,35.36
2023-04-27T02:57:24.416Z,35.43
2023-04-27T02:58:24.394Z,35.57
2023-04-27T02:59:24.386Z,34.96
2023-04-27T03:00:24.408Z,35.27
2023-04-27T03:01:24.486Z,34.63
2023-04-27T03:02:24.507Z,34.07
2023-04-27T03:03:24.493Z,34.68
2023-04-27T03:04:24.469Z,35.30
2023-04-27T03:05:24.333Z,35.13
2023-04-27T03:06:24.386Z,34.74
2023-04-27T03:07:24.305Z,34.43
2023-04-27T03:08:24.297Z,34.37
2023-04-27T03:09:24.311Z,34.35
2023-04-27T03:10:24.333Z,34.12
2023-04-27T03:11:24.312Z,34.50
2023-04-27T03:12:24.247Z,33.89
2023-04-27T03:13:24.274Z,34.17
2023-04-27T03:14:24.275Z,33.97
2023-04-27T03:15:24.281Z,33.98
2023-04-27T03:16:24.306Z,34.01
2023-04-27T03:17:24.309Z,33.81
2023-04-27T03:18:24.254Z,33.34
2023-04-27T03:19:24.275Z,33.51
2023-04-27T03:20:24.229Z,32.96
2023-04-27T03:21:24.252Z,33.55
2023-04-27T03:22:24.210Z,32.98
2023-04-27T03:23:24.259Z,33.05
2023-04-27T03:24:24.214Z,32.73
2023-04-27T03:25:24.218Z,32.25
2023-04-27T03:26:24.252Z,32.64
2023-04-27T03:27:24.184Z,31.81
2023-04-27T03:28:24.225Z,32.21
2023-04-27T03:29:24.177Z,32.48
2023-04-27T03:30:24.187Z,31.96
2023-04-27T03:31:24.187Z,32.26
2023-04-27T03:32:24.211Z,32.24
2023-04-27T03:33:24.201Z,31.44
2023-04-27T03:34:24.203Z,31.78
2023-04-27T03:35:24.222Z,31.09
2023-04-27T03:36:24.230Z,30.93
2023-04-27T03:37:24.239Z,31.13
2023-04-27T03:38:24.306Z,31.24
2023-04-27T03:39:24.257Z,31.10
2023-04-27T03:40:24.316Z,30.57
2023-04-27T03:41:24.315Z,31.32
2023-04-27T03:42:24.327Z,31.29
2023-04-27T03:43:24.438Z,30.90
2023-04-27T03:44:24.490Z,30.53
2023-04-27T03:45:24.457Z,30.98
2023-04-27T03:46:24.525Z,30.78
2023-04-27T03:47:24.549Z,31.67
2023-04-27T03:48:24.607Z,30.70
2023-04-27T03:49:24.676Z,31.19
2023-04-27T03:50:24.667Z,30.63
2023-04-27T03:51:24.707Z,30.34
2023-04-27T03:52:24.706Z,30.41
2023-04-27T03:53:24.712Z,30.37
2023-04-27T03:54:24.748Z,29.93
2023-04-27T03:55:24.743Z,30.26
2023-04-27T03:56:24.840Z,30.58
2023-04-27T03:57:24.798Z,29.71
2023-04-27T03:58:24.770Z,29.92
2023-04-27T03:59:24.852Z,29.87
2023-04-27T04:00:24.863Z,29.35
2023-04-27T04:01:24.886Z,29.54
2023-04-27T04:02:25.022Z,29.23
2023-04-27T04:03:25.099Z,28.92
2023-04-27T04:04:25.110Z,29.92
2023-04-27T04:05:24.948Z,29.02
2023-04-27T04:06:24.946Z,28.16
2023-04-27T04:07:25.018Z,27.92
2023-04-27T04:08:24.976Z,27.60
2023-04-27T04:09:25.018Z,27.20
2023-04-27T04:10:25.081Z,25.60
2023-04-27T04:11:25.096Z,25.38
2023-04-27T04:12:25.170Z,24.31
2023-04-27T04:13:25.185Z,24.27
2023-04-27T04:14:25.158Z,23.67
2023-04-27T04:15:25.220Z,22.90
2023-04-27T04:16:25.344Z,22.47
2023-04-27T04:17:25.389Z,21.70
2023-04-27T04:18:25.393Z,21.55
2023-04-27T04:19:25.430Z,20.81
2023-04-27T04:20:25.521Z,20.71
2023-04-27T04:21:25.502Z,20.17
2023-04-27T04:22:25.521Z,20.08
2023-04-27T04:23:25.577Z,19.35
2023-04-27T04:24:25.637Z,19.25
2023-04-27T04:25:25.589Z,18.88
2023-04-27T04:26:25.657Z,18.57
2023-04-27T04:27:25.692Z,18.69
2023-04-27T04:28:25.707Z,17.67
2023-04-27T04:29:25.740Z,17.30
2023-04-27T04:30:25.820Z,17.42
2023-04-27T04:31:25.878Z,16.66
2023-04-27T04:32:25.989Z,16.86
2023-04-27T04:33:25.944Z,16.76
2023-04-27T04:34:26.005Z,16.55
2023-04-27T04:35:26.050Z,16.24
2023-04-27T04:36:26.066Z,16.39
2023-04-27T04:37:26.157Z,16.22
2023-04-27T04:38:26.169Z,16.26
2023-04-27T04:39:26.220Z,16.22
2023-04-27T04:40:26.251Z,16.14
2023-04-27T04:41:26.280Z,15.94
2023-04-27T04:42:26.334Z,15.77
2023-04-27T04:43:26.336Z,16.06
2023-04-27T04:44:26.320Z,15.90
2023-04-27T04:45:26.342Z,15.82
2023-04-27T04:46:26.444Z,16.03
2023-04-27T04:47:26.458Z,15.67
2023-04-27T04:48:26.425Z,15.64
2023-04-27T04:49:26.454Z,15.64
2023-04-27T04:50:26.501Z,15.44
2023-04-27T04:51:26.522Z,15.24
2023-04-27T04:52:26.601Z,15.67
2023-04-27T04:53:26.650Z,15.90
2023-04-27T04:54:26.673Z,15.54
2023-04-27T04:55:26.684Z,15.57
2023-04-27T04:56:26.705Z,15.39
2023-04-27T04:57:26.783Z,15.44
2023-04-27T04:58:26.816Z,15.07
2023-04-27T04:59:26.914Z,15.63
2023-04-27T05:00:26.950Z,15.28
2023-04-27T05:01:27.057Z,15.59
2023-04-27T05:02:27.133Z,15.55
2023-04-27T05:03:27.257Z,15.21
2023-04-27T05:04:27.256Z,15.56
2023-04-27T05:05:27.185Z,15.36
2023-04-27T05:06:27.207Z,15.20
2023-04-27T05:07:27.261Z,14.94
2023-04-27T05:08:27.299Z,15.25
2023-04-27T05:09:27.318Z,15.16
2023-04-27T05:10:27.378Z,15.19
2023-04-27T05:11:27.388Z,14.66
2023-04-27T05:12:27.417Z,15.24
2023-04-27T05:13:27.434Z,14.60
2023-04-27T05:14:27.458Z,14.72
2023-04-27T05:15:27.522Z,14.78
2023-04-27T05:16:27.544Z,14.95
2023-04-27T05:17:27.578Z,14.44
2023-04-27T05:18:27.575Z,14.42
2023-04-27T05:19:27.573Z,14.50
2023-04-27T05:20:27.656Z,14.41
2023-04-27T05:21:27.653Z,14.54
2023-04-27T05:22:27.710Z,14.08
2023-04-27T05:23:27.708Z,14.34
2023-04-27T05:24:27.806Z,14.14
2023-04-27T05:25:27.779Z,14.24
2023-04-27T05:26:27.788Z,14.18
2023-04-27T05:27:27.866Z,14.07
2023-04-27T05:28:27.912Z,14.38
2023-04-27T05:29:27.917Z,14.32
2023-04-27T05:30:27.966Z,14.18
2023-04-27T05:31:28.049Z,14.18
2023-04-27T05:32:28.081Z,14.05
2023-04-27T05:33:28.078Z,14.32
2023-04-27T05:34:28.167Z,14.64
2023-04-27T05:35:28.208Z,14.73
2023-04-27T05:36:28.310Z,14.90
2023-04-27T05:37:28.332Z,15.29
2023-04-27T05:38:28.303Z,15.33
2023-04-27T05:39:28.369Z,15.67
2023-04-27T05:40:28.411Z,15.93
2023-04-27T05:41:28.454Z,16.29
2023-04-27T05:42:28.452Z,17.00
2023-04-27T05:43:28.470Z,17.05
2023-04-27T05:44:28.585Z,17.12
2023-04-27T05:45:28.596Z,17.50
2023-04-27T05:46:28.548Z,17.86
2023-04-27T05:47:28.617Z,18.36
2023-04-27T05:48:28.555Z,18.35
2023-04-27T05:49:28.619Z,18.18
2023-04-27T05:50:28.573Z,18.13
2023-04-27T05:51:28.649Z,18.15
2023-04-27T05:52:29.092Z,18.33
2023-04-27T05:53:28.639Z,18.33
2023-04-27T05:54:28.654Z,18.29
2023-04-27T05:55:28.656Z,18.36
2023-04-27T05:56:28.733Z,18.64
2023-04-27T05:57:28.724Z,18.61
2023-04-27T05:58:28.690Z,19.04
2023-04-27T05:59:28.693Z,19.06
2023-04-27T06:00:28.790Z,19.43
2023-04-27T06:01:28.777Z,19.45
2023-04-27T06:02:29.161Z,19.73
2023-04-27T06:03:28.970Z,19.64
2023-04-27T06:04:28.851Z,19.73
2023-04-27T06:05:28.867Z,20.35
2023-04-27T06:06:28.790Z,20.22
2023-04-27T06:07:28.838Z,20.50
2023-04-27T06:08:28.759Z,20.30
2023-04-27T06:09:28.769Z,20.84
2023-04-27T06:10:28.759Z,20.83
2023-04-27T06:11:28.896Z,21.18
2023-04-27T06:12:28.772Z,21.18
2023-04-27T06:13:28.819Z,21.42
2023-04-27T06:14:28.783Z,21.57
2023-04-27T06:15:28.780Z,21.58
2023-04-27T06:16:28.895Z,21.82
2023-04-27T06:17:28.922Z,21.93
2023-04-27T06:18:29.066Z,22.23
2023-04-27T06:19:28.872Z,22.54
2023-04-27T06:20:28.863Z,22.38
2023-04-27T06:21:28.844Z,22.30
2023-04-27T06:22:28.796Z,21.98
2023-04-27T06:23:29.126Z,21.41
2023-04-27T06:24:28.817Z,21.66
2023-04-27T06:25:29.387Z,20.45
2023-04-27T06:26:28.829Z,20.69
2023-04-27T06:27:28.861Z,20.97
2023-04-27T06:28:28.861Z,20.53
2023-04-27T06:29:28.854Z,20.50
2023-04-27T06:30:29.094Z,20.31
2023-04-27T06:31:28.926Z,20.16
2023-04-27T06:32:28.987Z,20.52
2023-04-27T06:33:29.030Z,20.86
2023-04-27T06:34:29.081Z,20.61
2023-04-27T06:35:29.095Z,20.25
2023-04-27T06:36:29.117Z,19.65
2023-04-27T06:37:29.582Z,20.48
2023-04-27T06:38:29.114Z,20.11
2023-04-27T06:39:29.113Z,20.28
2023-04-27T06:40:29.591Z,18.27
2023-04-27T06:41:29.152Z,14.83
2023-04-27T06:42:29.145Z,13.32
2023-04-27T06:43:29.144Z,14.47
2023-04-27T06:44:29.184Z,15.58
2023-04-27T06:45:29.619Z,16.15
2023-04-27T06:46:29.301Z,17.01
2023-04-27T06:47:29.401Z,17.42
2023-04-27T06:48:29.326Z,17.56
2023-04-27T06:49:29.395Z,17.41
2023-04-27T06:50:29.451Z,17.09
2023-04-27T06:51:29.434Z,17.10
2023-04-27T06:52:29.532Z,16.95
2023-04-27T06:53:29.465Z,17.31
2023-04-27T06:54:29.459Z,17.00
2023-04-27T06:55:29.469Z,16.24
2023-04-27T06:56:29.481Z,16.38
2023-04-27T06:57:29.509Z,15.67
2023-04-27T06:58:29.479Z,16.19
2023-04-27T06:59:29.734Z,15.63
2023-04-27T07:00:29.462Z,16.07
2023-04-27T07:01:29.856Z,15.78
2023-04-27T07:02:29.513Z,14.66
2023-04-27T07:03:29.597Z,14.04
2023-04-27T07:04:29.516Z,13.90
2023-04-27T07:05:29.530Z,14.22
2023-04-27T07:06:29.543Z,14.54
2023-04-27T07:07:29.568Z,14.47
2023-04-27T07:08:29.514Z,14.30
2023-04-27T07:09:29.754Z,14.28
2023-04-27T07:10:29.672Z,13.66
2023-04-27T07:11:29.653Z,14.11
2023-04-27T07:12:29.691Z,14.59
2023-04-27T07:13:30.142Z,15.01
2023-04-27T07:14:29.795Z,15.27
2023-04-27T07:15:29.924Z,15.70
2023-04-27T07:16:29.895Z,16.04
2023-04-27T07:17:29.842Z,16.01
2023-04-27T07:18:29.850Z,16.32
2023-04-27T07:19:29.909Z,17.02
2023-04-27T07:20:29.955Z,17.35
2023-04-27T07:21:29.966Z,17.73
2023-04-27T07:22:30.021Z,17.91
2023-04-27T07:23:30.029Z,17.79
2023-04-27T07:24:30.076Z,17.67
2023-04-27T07:25:30.160Z,17.87
2023-04-27T07:26:30.585Z,17.63
2023-04-27T07:27:30.341Z,17.73
2023-04-27T07:28:30.313Z,17.71
2023-04-27T07:29:30.412Z,18.00
2023-04-27T07:30:30.337Z,17.40
2023-04-27T07:31:30.419Z,16.91
2023-04-27T07:32:30.537Z,16.40
2023-04-27T07:33:30.515Z,16.14
2023-04-27T07:34:41.091Z,16.49
2023-04-27T07:35:31.554Z,16.51
2023-04-27T07:36:30.634Z,16.53
2023-04-27T07:37:30.483Z,16.36
2023-04-27T07:38:30.482Z,15.08
2023-04-27T07:39:30.478Z,13.90
2023-04-27T07:40:30.509Z,13.46
2023-04-27T07:41:30.503Z,12.72
2023-04-27T07:42:30.470Z,11.96
2023-04-27T07:43:30.485Z,11.16
2023-04-27T07:44:30.473Z,12.02
2023-04-27T07:45:30.479Z,12.75
2023-04-27T07:46:30.439Z,12.92
2023-04-27T07:47:30.404Z,12.91
2023-04-27T07:48:30.404Z,12.85
2023-04-27T07:49:30.412Z,12.37
2023-04-27T07:50:30.461Z,11.62
2023-04-27T07:51:30.428Z,10.91
2023-04-27T07:52:30.382Z,11.55
2023-04-27T07:53:30.387Z,12.00
2023-04-27T07:54:30.361Z,11.77
2023-04-27T07:55:30.378Z,12.18
2023-04-27T07:56:30.368Z,12.35
2023-04-27T07:57:30.427Z,12.84
2023-04-27T07:58:30.302Z,12.82
2023-04-27T07:59:30.385Z,12.43
2023-04-27T08:00:30.355Z,13.33
2023-04-27T08:01:30.397Z,13.71
2023-04-27T08:02:30.807Z,13.86
2023-04-27T08:03:30.788Z,14.18
2023-04-27T08:04:30.826Z,14.53
2023-04-27T08:05:31.092Z,14.80
2023-04-27T08:06:30.996Z,15.31
2023-04-27T08:07:30.987Z,15.03
2023-04-27T08:08:31.166Z,15.57
2023-04-27T08:09:30.876Z,16.13
2023-04-27T08:10:30.822Z,16.20
2023-04-27T08:11:30.913Z,16.47
2023-04-27T08:12:30.913Z,16.78
2023-04-27T08:13:31.000Z,16.57
2023-04-27T08:14:31.052Z,16.49
2023-04-27T08:15:31.065Z,16.48
2023-04-27T08:16:31.138Z,16.63
2023-04-27T08:17:31.153Z,17.23
2023-04-27T08:18:31.174Z,17.45
2023-04-27T08:19:31.195Z,17.02
2023-04-27T08:20:31.183Z,17.21
2023-04-27T08:21:31.256Z,18.05
2023-04-27T08:22:31.252Z,17.86
2023-04-27T08:23:31.340Z,17.80
2023-04-27T08:24:31.294Z,17.71
2023-04-27T08:25:31.330Z,18.00
2023-04-27T08:26:31.305Z,18.43
2023-04-27T08:27:31.714Z,17.89
2023-04-27T08:28:31.437Z,18.17
2023-04-27T08:29:31.656Z,19.10
2023-04-27T08:30:31.402Z,19.54
2023-04-27T08:31:31.495Z,17.64
2023-04-27T08:32:31.496Z,17.63
2023-04-27T08:33:31.489Z,16.41
2023-04-27T08:34:31.489Z,15.38
2023-04-27T08:35:31.489Z,16.89
2023-04-27T08:36:31.491Z,16.48
2023-04-27T08:37:31.551Z,14.98
2023-04-27T08:38:31.579Z,14.91
2023-04-27T08:39:31.626Z,14.36
2023-04-27T08:40:31.699Z,12.71
2023-04-27T08:41:31.689Z,12.72
2023-04-27T08:42:31.726Z,13.74
2023-04-27T08:43:31.803Z,13.70
2023-04-27T08:44:31.811Z,14.61
2023-04-27T08:45:31.817Z,14.88
2023-04-27T08:46:31.889Z,15.25
2023-04-27T08:47:41.870Z,15.39
2023-04-27T08:48:32.933Z,15.39
2023-04-27T08:49:31.880Z,15.54
2023-04-27T08:50:31.901Z,15.54
2023-04-27T08:51:31.902Z,15.84
2023-04-27T08:52:31.870Z,16.52
2023-04-27T08:53:31.880Z,16.49
2023-04-27T08:54:31.823Z,16.08
2023-04-27T08:55:31.899Z,16.70
2023-04-27T08:56:31.852Z,16.39
2023-04-27T08:57:31.829Z,16.63
2023-04-27T08:58:31.816Z,16.46
2023-04-27T08:59:31.816Z,16.41
2023-04-27T09:00:31.830Z,17.14
2023-04-27T09:01:31.881Z,17.23
2023-04-27T09:02:32.012Z,18.20
2023-04-27T09:03:32.087Z,18.30
2023-04-27T09:04:32.032Z,18.18
2023-04-27T09:05:32.097Z,18.85
2023-04-27T09:06:32.131Z,18.88
2023-04-27T09:07:32.118Z,18.43
2023-04-27T09:08:32.120Z,19.72
2023-04-27T09:09:32.194Z,20.14
2023-04-27T09:10:32.200Z,18.86
2023-04-27T09:11:32.207Z,18.43
2023-04-27T09:12:32.222Z,18.36
2023-04-27T09:13:32.659Z,19.47
2023-04-27T09:14:32.226Z,20.17
2023-04-27T09:15:32.232Z,20.30
2023-04-27T09:16:32.346Z,21.17
2023-04-27T09:17:32.296Z,19.38
2023-04-27T09:18:32.355Z,16.54
2023-04-27T09:19:32.370Z,14.56
2023-04-27T09:20:32.400Z,14.19
2023-04-27T09:21:32.383Z,14.81
2023-04-27T09:22:32.378Z,15.56
2023-04-27T09:23:32.441Z,17.14
2023-04-27T09:24:32.460Z,17.04
2023-04-27T09:25:32.435Z,18.59
2023-04-27T09:26:32.450Z,17.09
2023-04-27T09:27:32.472Z,17.02
2023-04-27T09:28:32.481Z,17.52
2023-04-27T09:29:32.464Z,16.09
2023-04-27T09:30:32.635Z,16.53
2023-04-27T09:31:32.514Z,16.64
2023-04-27T09:32:32.465Z,17.45
2023-04-27T09:33:32.506Z,18.97
2023-04-27T09:34:32.522Z,20.64
2023-04-27T09:35:32.655Z,22.52
2023-04-27T09:36:32.672Z,22.78
2023-04-27T09:37:32.586Z,22.79
2023-04-27T09:38:32.657Z,24.39
2023-04-27T09:39:32.701Z,24.15
2023-04-27T09:40:32.817Z,24.00
2023-04-27T09:41:32.752Z,23.57
2023-04-27T09:42:32.720Z,25.08
2023-04-27T09:43:32.780Z,23.97
2023-04-27T09:44:32.799Z,22.78
2023-04-27T09:45:32.909Z,22.54
2023-04-27T09:46:32.961Z,24.68
2023-04-27T09:47:33.020Z,26.28
2023-04-27T09:48:33.004Z,29.11
2023-04-27T09:49:33.075Z,29.28
2023-04-27T09:50:33.133Z,28.74
2023-04-27T09:51:33.196Z,30.62
2023-04-27T09:52:33.244Z,29.91
2023-04-27T09:53:33.317Z,30.11
2023-04-27T09:54:35.167Z,30.98
2023-04-27T09:55:33.448Z,32.46
2023-04-27T09:56:33.674Z,32.33
2023-04-27T09:57:33.542Z,31.79
2023-04-27T09:58:33.616Z,29.46
2023-04-27T09:59:33.662Z,29.18
2023-04-27T10:00:33.735Z,28.41
2023-04-27T10:01:35.251Z,29.15
2023-04-27T10:02:46.301Z,24.89
2023-04-27T10:03:34.893Z,21.47
2023-04-27T10:04:33.959Z,18.40
2023-04-27T10:05:33.768Z,15.52
2023-04-27T10:06:33.760Z,16.76
2023-04-27T10:07:33.760Z,16.03
2023-04-27T10:08:33.716Z,14.57
2023-04-27T10:09:33.749Z,14.18
2023-04-27T10:10:33.733Z,12.93
2023-04-27T10:11:33.730Z,12.59
2023-04-27T10:12:33.759Z,12.51
2023-04-27T10:13:33.708Z,12.96
2023-04-27T10:14:33.699Z,12.25
2023-04-27T10:15:33.716Z,10.49
2023-04-27T10:16:33.691Z,10.19
2023-04-27T10:17:33.849Z,10.84
2023-04-27T10:18:33.845Z,10.50
2023-04-27T10:19:33.903Z,10.36
2023-04-27T10:20:33.899Z,9.94
2023-04-27T10:21:33.917Z,10.37
2023-04-27T10:22:34.501Z,10.43
2023-04-27T10:23:33.961Z,11.66
2023-04-27T10:24:33.973Z,14.30
2023-04-27T10:25:33.977Z,14.18
2023-04-27T10:26:36.012Z,12.11
2023-04-27T10:27:34.011Z,12.54
2023-04-27T10:28:34.185Z,9.24
2023-04-27T10:29:34.041Z,5.42
2023-04-27T10:30:34.070Z,2.90
2023-04-27T10:31:34.043Z,4.16
2023-04-27T10:32:34.084Z,5.23
2023-04-27T10:33:34.002Z,4.64
2023-04-27T10:34:33.972Z,4.37
2023-04-27T10:35:33.978Z,4.59
2023-04-27T10:36:33.948Z,4.12
2023-04-27T10:37:33.976Z,4.83
2023-04-27T10:38:33.956Z,4.44
2023-04-27T10:39:46.936Z,4.20
2023-04-27T10:40:34.980Z,4.23
2023-04-27T10:41:33.967Z,4.27
2023-04-27T10:42:33.962Z,4.45
2023-04-27T10:43:33.921Z,3.93
2023-04-27T10:44:33.999Z,3.82
2023-04-27T10:45:33.920Z,3.44
2023-04-27T10:46:33.957Z,3.49
2023-04-27T10:47:33.925Z,3.61
2023-04-27T10:48:33.900Z,3.76
2023-04-27T10:49:33.922Z,4.55
2023-04-27T10:50:33.925Z,4.57
2023-04-27T10:51:33.853Z,5.51
2023-04-27T10:52:33.869Z,6.01
2023-04-27T10:53:33.879Z,6.11
2023-04-27T10:54:33.901Z,5.95
2023-04-27T10:55:33.845Z,5.25
2023-04-27T10:56:33.844Z,5.76
2023-04-27T10:57:33.877Z,5.89
2023-04-27T10:58:45.267Z,6.03
2023-04-27T10:59:34.848Z,5.91
2023-04-27T11:00:33.819Z,6.14
2023-04-27T11:01:33.869Z,5.77
2023-04-27T11:02:33.855Z,6.16
2023-04-27T11:03:33.899Z,5.57
2023-04-27T11:04:33.792Z,5.78
2023-04-27T11:05:33.806Z,6.32
2023-04-27T11:06:33.756Z,6.74
2023-04-27T11:07:33.766Z,5.79
2023-04-27T11:08:33.772Z,4.52
2023-04-27T11:09:33.767Z,4.81
2023-04-27T11:10:33.804Z,4.79
2023-04-27T11:11:33.745Z,4.82
2023-04-27T11:12:33.883Z,4.72
2023-04-27T11:13:33.771Z,4.86
2023-04-27T11:14:33.772Z,4.75
2023-04-27T11:15:33.831Z,4.20
2023-04-27T11:16:33.947Z,4.54
2023-04-27T11:17:33.979Z,4.42
2023-04-27T11:18:34.001Z,3.88
2023-04-27T11:19:34.035Z,3.61
2023-04-27T11:20:34.112Z,3.64
2023-04-27T11:21:34.212Z,4.79
2023-04-27T11:22:34.256Z,4.52
2023-04-27T11:23:34.360Z,4.11
2023-04-27T11:24:34.760Z,4.07
2023-04-27T11:25:34.391Z,3.97
2023-04-27T11:26:34.708Z,4.04
2023-04-27T11:27:34.526Z,3.89
2023-04-27T11:28:34.606Z,3.86
2023-04-27T11:29:34.777Z,3.67
2023-04-27T11:30:34.696Z,3.85
2023-04-27T11:31:34.895Z,3.52
2023-04-27T11:32:34.820Z,3.51
2023-04-27T11:33:35.921Z,3.37
2023-04-27T11:34:34.784Z,3.29
2023-04-27T11:35:34.841Z,3.08
2023-04-27T11:36:34.886Z,3.54
2023-04-27T11:37:34.986Z,3.47
2023-04-27T11:38:35.057Z,3.06
2023-04-27T11:39:35.044Z,3.46
2023-04-27T11:40:35.075Z,3.37
2023-04-27T11:41:35.095Z,3.21
2023-04-27T11:42:35.089Z,3.40
2023-04-27T11:43:38.718Z,3.95
2023-04-27T11:44:35.070Z,4.71
2023-04-27T11:45:35.101Z,5.35
2023-04-27T11:46:35.246Z,4.37
2023-04-27T11:47:35.161Z,4.53
2023-04-27T11:48:35.071Z,3.96
2023-04-27T11:49:35.038Z,3.61
2023-04-27T11:50:35.039Z,3.22
2023-04-27T11:51:35.047Z,2.86
2023-04-27T11:52:35.062Z,2.51
2023-04-27T11:53:35.071Z,2.43
2023-04-27T11:54:35.032Z,2.47
2023-04-27T11:55:35.008Z,2.43
2023-04-27T11:56:35.032Z,2.54
2023-04-27T11:57:34.985Z,2.55
2023-04-27T11:58:35.204Z,2.09
2023-04-27T11:59:35.007Z,2.44
2023-04-27T12:00:35.020Z,2.40
2023-04-27T12:01:38.038Z,2.34
2023-04-27T12:02:36.383Z,2.12
2023-04-27T12:03:35.729Z,1.67
2023-04-27T12:04:35.074Z,1.89
2023-04-27T12:05:35.241Z,1.74
2023-04-27T12:06:34.916Z,1.71
2023-04-27T12:07:34.952Z,1.81
2023-04-27T12:08:34.968Z,1.93
2023-04-27T12:09:34.913Z,1.59
2023-04-27T12:10:34.908Z,1.36
2023-04-27T12:11:34.930Z,1.25
2023-04-27T12:12:34.951Z,1.35
2023-04-27T12:13:34.947Z,1.33
2023-04-27T12:14:34.931Z,1.28
2023-04-27T12:15:34.948Z,1.22
2023-04-27T12:16:35.001Z,1.26
2023-04-27T12:17:35.084Z,1.08
2023-04-27T12:18:34.981Z,1.44
2023-04-27T12:19:35.003Z,1.54
2023-04-27T12:20:34.988Z,1.53
2023-04-27T12:21:34.979Z,1.32
2023-04-27T12:22:34.949Z,1.27
2023-04-27T12:23:35.009Z,1.62
2023-04-27T12:24:35.013Z,2.26
2023-04-27T12:25:34.976Z,2.19
2023-04-27T12:26:35.028Z,1.71
2023-04-27T12:27:34.984Z,1.62
2023-04-27T12:28:35.055Z,1.38
2023-04-27T12:29:35.019Z,1.59
2023-04-27T12:30:35.015Z,1.66
2023-04-27T12:31:35.101Z,1.60
2023-04-27T12:32:35.079Z,1.70
2023-04-27T12:33:35.094Z,1.80
2023-04-27T12:34:35.082Z,1.88
2023-04-27T12:35:35.085Z,2.04
2023-04-27T12:36:35.116Z,2.21
2023-04-27T12:37:35.155Z,1.89
2023-04-27T12:38:35.150Z,2.20
2023-04-27T12:39:35.184Z,2.12
2023-04-27T12:40:35.224Z,1.40
2023-04-27T12:41:35.289Z,1.40
2023-04-27T12:42:35.220Z,1.52
2023-04-27T12:43:35.249Z,1.79
2023-04-27T12:44:35.240Z,1.95
2023-04-27T12:45:35.263Z,2.64
2023-04-27T12:46:35.354Z,3.37
2023-04-27T12:48:35.276Z,4.12
2023-04-27T12:49:35.243Z,3.55
2023-04-27T12:50:35.257Z,4.04
2023-04-27T12:51:35.242Z,3.99
2023-04-27T12:52:35.247Z,4.21
2023-04-27T12:53:35.268Z,4.49
2023-04-27T12:54:35.217Z,4.92
2023-04-27T12:55:35.231Z,5.24
2023-04-27T12:56:35.232Z,4.05
2023-04-27T12:57:35.230Z,3.63
2023-04-27T12:58:35.205Z,3.81